sensor_id;sensor_type;location;lat;lon;timestamp;pressure;altitude;pressure_sealevel;temperature
15680;BMP180;15488;48.114;11.532;2022-11-11T00:01:11;96727.00;;;14.80
15680;BMP180;15488;48.114;11.532;2022-11-11T00:03:39;96726.00;;;14.80
15680;BMP180;15488;48.114;11.532;2022-11-11T00:06:09;96727.00;;;14.80
15680;BMP180;15488;48.114;11.532;2022-11-11T00:08:37;96725.00;;;14.80
15680;BMP180;15488;48.114;11.532;2022-11-11T00:11:06;96717.00;;;14.80
15680;BMP180;15488;48.114;11.532;2022-11-11T00:13:34;96723.00;;;14.80
15680;BMP180;15488;48.114;11.532;2022-11-11T00:16:04;96730.00;;;14.80
15680;BMP180;15488;48.114;11.532;2022-11-11T00:18:33;96723.00;;;14.80
15680;BMP180;15488;48.114;11.532;2022-11-11T00:21:17;96734.00;;;14.80
15680;BMP180;15488;48.114;11.532;2022-11-11T00:24:02;96726.00;;;14.80
15680;BMP180;15488;48.114;11.532;2022-11-11T00:26:47;96735.00;;;14.70
15680;BMP180;15488;48.114;11.532;2022-11-11T00:29:15;96736.00;;;14.70
15680;BMP180;15488;48.114;11.532;2022-11-11T00:31:42;96742.00;;;14.70
15680;BMP180;15488;48.114;11.532;2022-11-11T00:34:25;96730.00;;;14.70
15680;BMP180;15488;48.114;11.532;2022-11-11T00:36:52;96742.00;;;14.70
15680;BMP180;15488;48.114;11.532;2022-11-11T00:39:18;96742.00;;;14.60
15680;BMP180;15488;48.114;11.532;2022-11-11T00:41:46;96734.00;;;14.60
15680;BMP180;15488;48.114;11.532;2022-11-11T00:44:13;96723.00;;;14.60
15680;BMP180;15488;48.114;11.532;2022-11-11T00:46:41;96726.00;;;14.60
15680;BMP180;15488;48.114;11.532;2022-11-11T00:49:27;96720.00;;;14.60
15680;BMP180;15488;48.114;11.532;2022-11-11T00:52:12;96719.00;;;14.60
15680;BMP180;15488;48.114;11.532;2022-11-11T00:54:40;96713.00;;;14.50
15680;BMP180;15488;48.114;11.532;2022-11-11T00:57:07;96723.00;;;14.50
15680;BMP180;15488;48.114;11.532;2022-11-11T00:59:35;96713.00;;;14.50
15680;BMP180;15488;48.114;11.532;2022-11-11T01:02:05;96709.00;;;14.50
15680;BMP180;15488;48.114;11.532;2022-11-11T01:04:34;96708.00;;;14.50
15680;BMP180;15488;48.114;11.532;2022-11-11T01:07:01;96702.00;;;14.50
15680;BMP180;15488;48.114;11.532;2022-11-11T01:09:29;96702.00;;;14.50
15680;BMP180;15488;48.114;11.532;2022-11-11T01:11:56;96694.00;;;14.50
15680;BMP180;15488;48.114;11.532;2022-11-11T01:14:24;96701.00;;;14.50
15680;BMP180;15488;48.114;11.532;2022-11-11T01:16:51;96700.00;;;14.50
15680;BMP180;15488;48.114;11.532;2022-11-11T01:19:19;96701.00;;;14.50
15680;BMP180;15488;48.114;11.532;2022-11-11T01:21:47;96701.00;;;14.50
15680;BMP180;15488;48.114;11.532;2022-11-11T01:24:15;96701.00;;;14.40
15680;BMP180;15488;48.114;11.532;2022-11-11T01:26:42;96709.00;;;14.50
15680;BMP180;15488;48.114;11.532;2022-11-11T01:29:10;96712.00;;;14.40
15680;BMP180;15488;48.114;11.532;2022-11-11T01:31:37;96724.00;;;14.40
15680;BMP180;15488;48.114;11.532;2022-11-11T01:34:05;96704.00;;;14.40
15680;BMP180;15488;48.114;11.532;2022-11-11T01:36:32;96648.00;;;14.40
15680;BMP180;15488;48.114;11.532;2022-11-11T01:39:01;96700.00;;;14.40
15680;BMP180;15488;48.114;11.532;2022-11-11T01:41:30;96697.00;;;14.40
15680;BMP180;15488;48.114;11.532;2022-11-11T01:46:58;96709.00;;;14.40
15680;BMP180;15488;48.114;11.532;2022-11-11T01:49:30;96705.00;;;14.40
15680;BMP180;15488;48.114;11.532;2022-11-11T01:52:02;96709.00;;;14.30
15680;BMP180;15488;48.114;11.532;2022-11-11T01:54:35;96701.00;;;14.30
15680;BMP180;15488;48.114;11.532;2022-11-11T01:57:10;96710.00;;;14.30
15680;BMP180;15488;48.114;11.532;2022-11-11T01:59:40;96712.00;;;14.30
15680;BMP180;15488;48.114;11.532;2022-11-11T02:02:14;96705.00;;;14.30
15680;BMP180;15488;48.114;11.532;2022-11-11T02:04:44;96706.00;;;14.30
15680;BMP180;15488;48.114;11.532;2022-11-11T02:07:30;96709.00;;;14.20
15680;BMP180;15488;48.114;11.532;2022-11-11T02:10:00;96704.00;;;14.20
15680;BMP180;15488;48.114;11.532;2022-11-11T02:12:28;96697.00;;;14.20
15680;BMP180;15488;48.114;11.532;2022-11-11T02:15:14;96703.00;;;14.20
15680;BMP180;15488;48.114;11.532;2022-11-11T02:17:41;96704.00;;;14.20
15680;BMP180;15488;48.114;11.532;2022-11-11T02:20:10;96705.00;;;14.10
15680;BMP180;15488;48.114;11.532;2022-11-11T02:22:47;96707.00;;;14.10
15680;BMP180;15488;48.114;11.532;2022-11-11T02:25:20;96708.00;;;14.10
15680;BMP180;15488;48.114;11.532;2022-11-11T02:27:50;96709.00;;;14.10
15680;BMP180;15488;48.114;11.532;2022-11-11T02:30:20;96707.00;;;14.00
15680;BMP180;15488;48.114;11.532;2022-11-11T02:32:48;96707.00;;;14.00
15680;BMP180;15488;48.114;11.532;2022-11-11T02:35:19;96704.00;;;14.00
15680;BMP180;15488;48.114;11.532;2022-11-11T02:37:49;96702.00;;;14.00
15680;BMP180;15488;48.114;11.532;2022-11-11T02:40:23;96705.00;;;14.00
15680;BMP180;15488;48.114;11.532;2022-11-11T02:42:51;96706.00;;;14.00
15680;BMP180;15488;48.114;11.532;2022-11-11T02:45:19;96706.00;;;14.00
15680;BMP180;15488;48.114;11.532;2022-11-11T02:47:46;96709.00;;;14.00
15680;BMP180;15488;48.114;11.532;2022-11-11T02:50:14;96716.00;;;13.90
15680;BMP180;15488;48.114;11.532;2022-11-11T02:52:41;96716.00;;;13.90
15680;BMP180;15488;48.114;11.532;2022-11-11T02:55:09;96717.00;;;13.90
15680;BMP180;15488;48.114;11.532;2022-11-11T02:57:38;96723.00;;;13.90
15680;BMP180;15488;48.114;11.532;2022-11-11T03:00:07;96727.00;;;13.90
15680;BMP180;15488;48.114;11.532;2022-11-11T03:02:35;96744.00;;;13.90
15680;BMP180;15488;48.114;11.532;2022-11-11T03:05:03;96752.00;;;13.90
15680;BMP180;15488;48.114;11.532;2022-11-11T03:07:30;96733.00;;;13.90
15680;BMP180;15488;48.114;11.532;2022-11-11T03:09:58;96739.00;;;13.90
15680;BMP180;15488;48.114;11.532;2022-11-11T03:12:25;96748.00;;;13.90
15680;BMP180;15488;48.114;11.532;2022-11-11T03:14:54;96755.00;;;13.90
15680;BMP180;15488;48.114;11.532;2022-11-11T03:17:21;96766.00;;;13.90
15680;BMP180;15488;48.114;11.532;2022-11-11T03:20:07;96768.00;;;13.90
15680;BMP180;15488;48.114;11.532;2022-11-11T03:23:00;96779.00;;;13.80
15680;BMP180;15488;48.114;11.532;2022-11-11T03:25:28;96778.00;;;13.80
15680;BMP180;15488;48.114;11.532;2022-11-11T03:28:05;96789.00;;;13.80
15680;BMP180;15488;48.114;11.532;2022-11-11T03:30:34;96788.00;;;13.80
15680;BMP180;15488;48.114;11.532;2022-11-11T03:33:02;96795.00;;;13.80
15680;BMP180;15488;48.114;11.532;2022-11-11T03:35:30;96795.00;;;13.80
15680;BMP180;15488;48.114;11.532;2022-11-11T03:37:58;96797.00;;;13.80
15680;BMP180;15488;48.114;11.532;2022-11-11T03:40:50;96794.00;;;13.70
15680;BMP180;15488;48.114;11.532;2022-11-11T03:43:19;96798.00;;;13.70
15680;BMP180;15488;48.114;11.532;2022-11-11T03:45:48;96796.00;;;13.60
15680;BMP180;15488;48.114;11.532;2022-11-11T03:48:16;96794.00;;;13.60
15680;BMP180;15488;48.114;11.532;2022-11-11T03:50:45;96792.00;;;13.60
15680;BMP180;15488;48.114;11.532;2022-11-11T03:53:13;96787.00;;;13.60
15680;BMP180;15488;48.114;11.532;2022-11-11T03:55:41;96791.00;;;13.60
15680;BMP180;15488;48.114;11.532;2022-11-11T03:58:08;96793.00;;;13.60
15680;BMP180;15488;48.114;11.532;2022-11-11T04:00:36;96787.00;;;13.60
15680;BMP180;15488;48.114;11.532;2022-11-11T04:03:07;96789.00;;;13.60
15680;BMP180;15488;48.114;11.532;2022-11-11T04:05:53;96785.00;;;13.60
15680;BMP180;15488;48.114;11.532;2022-11-11T04:08:38;96783.00;;;13.60
15680;BMP180;15488;48.114;11.532;2022-11-11T04:11:26;96778.00;;;13.50
15680;BMP180;15488;48.114;11.532;2022-11-11T04:13:56;96785.00;;;13.50
15680;BMP180;15488;48.114;11.532;2022-11-11T04:16:43;96781.00;;;13.50
15680;BMP180;15488;48.114;11.532;2022-11-11T04:19:11;96775.00;;;13.50
15680;BMP180;15488;48.114;11.532;2022-11-11T04:21:56;96771.00;;;13.50
15680;BMP180;15488;48.114;11.532;2022-11-11T04:24:24;96757.00;;;13.60
15680;BMP180;15488;48.114;11.532;2022-11-11T04:27:10;96751.00;;;13.50
15680;BMP180;15488;48.114;11.532;2022-11-11T04:29:38;96753.00;;;13.50
15680;BMP180;15488;48.114;11.532;2022-11-11T04:32:06;96754.00;;;13.50
15680;BMP180;15488;48.114;11.532;2022-11-11T04:34:54;96751.00;;;13.50
15680;BMP180;15488;48.114;11.532;2022-11-11T04:37:23;96752.00;;;13.50
15680;BMP180;15488;48.114;11.532;2022-11-11T04:39:51;96748.00;;;13.50
15680;BMP180;15488;48.114;11.532;2022-11-11T04:42:37;96755.00;;;13.40
15680;BMP180;15488;48.114;11.532;2022-11-11T04:45:06;96756.00;;;13.40
15680;BMP180;15488;48.114;11.532;2022-11-11T04:47:53;96754.00;;;13.50
15680;BMP180;15488;48.114;11.532;2022-11-11T04:50:22;96758.00;;;13.40
15680;BMP180;15488;48.114;11.532;2022-11-11T04:52:50;96759.00;;;13.40
15680;BMP180;15488;48.114;11.532;2022-11-11T04:55:17;96763.00;;;13.40
15680;BMP180;15488;48.114;11.532;2022-11-11T04:58:03;96759.00;;;13.40
15680;BMP180;15488;48.114;11.532;2022-11-11T05:00:30;96763.00;;;13.40
15680;BMP180;15488;48.114;11.532;2022-11-11T05:02:58;96762.00;;;13.30
15680;BMP180;15488;48.114;11.532;2022-11-11T05:05:46;96770.00;;;13.40
15680;BMP180;15488;48.114;11.532;2022-11-11T05:08:32;96765.00;;;13.40
15680;BMP180;15488;48.114;11.532;2022-11-11T05:11:18;96773.00;;;13.40
15680;BMP180;15488;48.114;11.532;2022-11-11T05:13:46;96768.00;;;13.40
15680;BMP180;15488;48.114;11.532;2022-11-11T05:16:33;96764.00;;;13.40
15680;BMP180;15488;48.114;11.532;2022-11-11T05:19:20;96766.00;;;13.40
15680;BMP180;15488;48.114;11.532;2022-11-11T05:22:10;96701.00;;;13.40
15680;BMP180;15488;48.114;11.532;2022-11-11T05:24:39;96767.00;;;13.40
15680;BMP180;15488;48.114;11.532;2022-11-11T05:27:24;96763.00;;;13.40
15680;BMP180;15488;48.114;11.532;2022-11-11T05:29:52;96777.00;;;13.40
15680;BMP180;15488;48.114;11.532;2022-11-11T05:32:21;96774.00;;;13.40
15680;BMP180;15488;48.114;11.532;2022-11-11T05:34:49;96773.00;;;13.40
15680;BMP180;15488;48.114;11.532;2022-11-11T05:37:18;96780.00;;;13.40
15680;BMP180;15488;48.114;11.532;2022-11-11T05:39:46;96780.00;;;13.40
15680;BMP180;15488;48.114;11.532;2022-11-11T05:42:13;96792.00;;;13.40
15680;BMP180;15488;48.114;11.532;2022-11-11T05:44:41;96792.00;;;13.40
15680;BMP180;15488;48.114;11.532;2022-11-11T05:47:08;96802.00;;;13.40
15680;BMP180;15488;48.114;11.532;2022-11-11T05:49:36;96806.00;;;13.40
15680;BMP180;15488;48.114;11.532;2022-11-11T05:52:04;96806.00;;;13.40
15680;BMP180;15488;48.114;11.532;2022-11-11T05:54:33;96816.00;;;13.40
15680;BMP180;15488;48.114;11.532;2022-11-11T05:57:01;96822.00;;;13.40
15680;BMP180;15488;48.114;11.532;2022-11-11T05:59:29;96820.00;;;13.40
15680;BMP180;15488;48.114;11.532;2022-11-11T06:01:56;96831.00;;;13.30
15680;BMP180;15488;48.114;11.532;2022-11-11T06:04:24;96827.00;;;13.30
15680;BMP180;15488;48.114;11.532;2022-11-11T06:06:51;96826.00;;;13.30
15680;BMP180;15488;48.114;11.532;2022-11-11T06:09:19;96833.00;;;13.40
15680;BMP180;15488;48.114;11.532;2022-11-11T06:11:48;96828.00;;;13.30
15680;BMP180;15488;48.114;11.532;2022-11-11T06:14:15;96829.00;;;13.40
15680;BMP180;15488;48.114;11.532;2022-11-11T06:16:43;96833.00;;;13.30
15680;BMP180;15488;48.114;11.532;2022-11-11T06:19:10;96834.00;;;13.30
15680;BMP180;15488;48.114;11.532;2022-11-11T06:21:38;96846.00;;;13.30
15680;BMP180;15488;48.114;11.532;2022-11-11T06:24:19;96843.00;;;13.30
15680;BMP180;15488;48.114;11.532;2022-11-11T06:26:48;96850.00;;;13.20
15680;BMP180;15488;48.114;11.532;2022-11-11T06:29:15;96848.00;;;13.20
15680;BMP180;15488;48.114;11.532;2022-11-11T06:31:43;96846.00;;;13.20
15680;BMP180;15488;48.114;11.532;2022-11-11T06:34:11;96851.00;;;13.20
15680;BMP180;15488;48.114;11.532;2022-11-11T06:36:39;96850.00;;;13.30
15680;BMP180;15488;48.114;11.532;2022-11-11T06:39:06;96841.00;;;13.30
15680;BMP180;15488;48.114;11.532;2022-11-11T06:41:34;96862.00;;;13.30
15680;BMP180;15488;48.114;11.532;2022-11-11T06:44:03;96871.00;;;13.20
15680;BMP180;15488;48.114;11.532;2022-11-11T06:46:30;96872.00;;;13.30
15680;BMP180;15488;48.114;11.532;2022-11-11T06:48:58;96870.00;;;13.30
15680;BMP180;15488;48.114;11.532;2022-11-11T06:51:25;96878.00;;;13.30
15680;BMP180;15488;48.114;11.532;2022-11-11T06:53:53;96878.00;;;13.30
15680;BMP180;15488;48.114;11.532;2022-11-11T06:56:20;96876.00;;;13.30
15680;BMP180;15488;48.114;11.532;2022-11-11T06:58:48;96890.00;;;13.40
15680;BMP180;15488;48.114;11.532;2022-11-11T07:01:16;96888.00;;;13.40
15680;BMP180;15488;48.114;11.532;2022-11-11T07:03:44;96890.00;;;13.50
15680;BMP180;15488;48.114;11.532;2022-11-11T07:06:11;96897.00;;;13.50
15680;BMP180;15488;48.114;11.532;2022-11-11T07:08:39;96900.00;;;13.60
15680;BMP180;15488;48.114;11.532;2022-11-11T07:11:09;96907.00;;;13.60
15680;BMP180;15488;48.114;11.532;2022-11-11T07:13:37;96908.00;;;13.80
15680;BMP180;15488;48.114;11.532;2022-11-11T07:16:05;96911.00;;;13.70
15680;BMP180;15488;48.114;11.532;2022-11-11T07:18:34;96919.00;;;13.70
15680;BMP180;15488;48.114;11.532;2022-11-11T07:21:01;96924.00;;;13.90
15680;BMP180;15488;48.114;11.532;2022-11-11T07:23:29;96930.00;;;13.80
15680;BMP180;15488;48.114;11.532;2022-11-11T07:25:56;96939.00;;;13.90
15680;BMP180;15488;48.114;11.532;2022-11-11T07:28:24;96932.00;;;14.00
15680;BMP180;15488;48.114;11.532;2022-11-11T07:30:51;96922.00;;;14.00
15680;BMP180;15488;48.114;11.532;2022-11-11T07:33:19;96929.00;;;14.00
15680;BMP180;15488;48.114;11.532;2022-11-11T07:35:47;96924.00;;;14.00
15680;BMP180;15488;48.114;11.532;2022-11-11T07:38:15;96935.00;;;14.00
15680;BMP180;15488;48.114;11.532;2022-11-11T07:40:42;96935.00;;;14.20
15680;BMP180;15488;48.114;11.532;2022-11-11T07:43:10;96935.00;;;14.10
15680;BMP180;15488;48.114;11.532;2022-11-11T07:45:37;96930.00;;;14.20
15680;BMP180;15488;48.114;11.532;2022-11-11T07:48:06;96931.00;;;14.30
15680;BMP180;15488;48.114;11.532;2022-11-11T07:50:33;96932.00;;;14.30
15680;BMP180;15488;48.114;11.532;2022-11-11T07:53:02;96927.00;;;14.30
15680;BMP180;15488;48.114;11.532;2022-11-11T07:55:29;96928.00;;;14.40
15680;BMP180;15488;48.114;11.532;2022-11-11T07:57:57;96942.00;;;14.50
15680;BMP180;15488;48.114;11.532;2022-11-11T08:00:25;96934.00;;;14.50
15680;BMP180;15488;48.114;11.532;2022-11-11T08:02:52;96931.00;;;14.50
15680;BMP180;15488;48.114;11.532;2022-11-11T08:05:19;96933.00;;;14.60
15680;BMP180;15488;48.114;11.532;2022-11-11T08:07:47;96930.00;;;14.60
15680;BMP180;15488;48.114;11.532;2022-11-11T08:10:16;96940.00;;;14.60
15680;BMP180;15488;48.114;11.532;2022-11-11T08:12:43;96937.00;;;14.70
15680;BMP180;15488;48.114;11.532;2022-11-11T08:15:28;96932.00;;;14.70
15680;BMP180;15488;48.114;11.532;2022-11-11T08:17:56;96937.00;;;14.80
15680;BMP180;15488;48.114;11.532;2022-11-11T08:20:23;96935.00;;;14.80
15680;BMP180;15488;48.114;11.532;2022-11-11T08:22:50;96935.00;;;14.90
15680;BMP180;15488;48.114;11.532;2022-11-11T08:25:21;96933.00;;;14.70
15680;BMP180;15488;48.114;11.532;2022-11-11T08:27:55;96928.00;;;15.00
15680;BMP180;15488;48.114;11.532;2022-11-11T08:30:22;96860.00;;;15.00
15680;BMP180;15488;48.114;11.532;2022-11-11T08:32:56;96914.00;;;15.00
15680;BMP180;15488;48.114;11.532;2022-11-11T08:35:24;96928.00;;;15.10
15680;BMP180;15488;48.114;11.532;2022-11-11T08:37:52;96925.00;;;15.10
15680;BMP180;15488;48.114;11.532;2022-11-11T08:40:21;96919.00;;;15.20
15680;BMP180;15488;48.114;11.532;2022-11-11T08:42:49;96913.00;;;15.30
15680;BMP180;15488;48.114;11.532;2022-11-11T08:45:16;96911.00;;;15.30
15680;BMP180;15488;48.114;11.532;2022-11-11T08:47:44;96913.00;;;15.40
15680;BMP180;15488;48.114;11.532;2022-11-11T08:50:12;96906.00;;;15.40
15680;BMP180;15488;48.114;11.532;2022-11-11T08:52:45;96908.00;;;15.40
15680;BMP180;15488;48.114;11.532;2022-11-11T08:55:14;96904.00;;;15.50
15680;BMP180;15488;48.114;11.532;2022-11-11T08:57:43;96906.00;;;15.50
15680;BMP180;15488;48.114;11.532;2022-11-11T09:00:12;96903.00;;;15.50
15680;BMP180;15488;48.114;11.532;2022-11-11T09:02:40;96898.00;;;15.60
15680;BMP180;15488;48.114;11.532;2022-11-11T09:05:08;96893.00;;;15.60
15680;BMP180;15488;48.114;11.532;2022-11-11T09:07:35;96889.00;;;15.60
15680;BMP180;15488;48.114;11.532;2022-11-11T09:10:03;96882.00;;;15.60
15680;BMP180;15488;48.114;11.532;2022-11-11T09:12:31;96886.00;;;15.60
15680;BMP180;15488;48.114;11.532;2022-11-11T09:15:00;96883.00;;;15.60
15680;BMP180;15488;48.114;11.532;2022-11-11T09:17:28;96884.00;;;15.60
15680;BMP180;15488;48.114;11.532;2022-11-11T09:19:57;96887.00;;;15.70
15680;BMP180;15488;48.114;11.532;2022-11-11T09:22:25;96886.00;;;15.60
15680;BMP180;15488;48.114;11.532;2022-11-11T09:25:19;96890.00;;;15.60
15680;BMP180;15488;48.114;11.532;2022-11-11T09:28:15;96886.00;;;15.60
15680;BMP180;15488;48.114;11.532;2022-11-11T09:30:49;96889.00;;;15.70
15680;BMP180;15488;48.114;11.532;2022-11-11T09:33:18;96897.00;;;15.80
15680;BMP180;15488;48.114;11.532;2022-11-11T09:35:46;96892.00;;;15.90
15680;BMP180;15488;48.114;11.532;2022-11-11T09:38:13;96896.00;;;16.00
15680;BMP180;15488;48.114;11.532;2022-11-11T09:40:57;96900.00;;;16.00
15680;BMP180;15488;48.114;11.532;2022-11-11T09:43:36;96898.00;;;16.20
15680;BMP180;15488;48.114;11.532;2022-11-11T09:49:22;96901.00;;;16.40
15680;BMP180;15488;48.114;11.532;2022-11-11T09:51:55;96895.00;;;16.50
15680;BMP180;15488;48.114;11.532;2022-11-11T09:54:36;96900.00;;;16.60
15680;BMP180;15488;48.114;11.532;2022-11-11T09:57:13;96894.00;;;16.70
15680;BMP180;15488;48.114;11.532;2022-11-11T09:59:45;96898.00;;;16.90
15680;BMP180;15488;48.114;11.532;2022-11-11T10:02:28;96900.00;;;17.00
15680;BMP180;15488;48.114;11.532;2022-11-11T10:05:01;96902.00;;;17.10
15680;BMP180;15488;48.114;11.532;2022-11-11T10:07:34;96908.00;;;17.20
15680;BMP180;15488;48.114;11.532;2022-11-11T10:10:11;96908.00;;;17.30
15680;BMP180;15488;48.114;11.532;2022-11-11T10:12:45;96913.00;;;17.40
15680;BMP180;15488;48.114;11.532;2022-11-11T10:15:14;96902.00;;;17.50
15680;BMP180;15488;48.114;11.532;2022-11-11T10:17:51;96902.00;;;17.60
15680;BMP180;15488;48.114;11.532;2022-11-11T10:20:25;96903.00;;;17.70
15680;BMP180;15488;48.114;11.532;2022-11-11T10:22:59;96901.00;;;17.80
15680;BMP180;15488;48.114;11.532;2022-11-11T10:25:30;96895.00;;;17.90
15680;BMP180;15488;48.114;11.532;2022-11-11T10:28:01;96891.00;;;17.90
15680;BMP180;15488;48.114;11.532;2022-11-11T10:30:33;96897.00;;;18.00
15680;BMP180;15488;48.114;11.532;2022-11-11T10:33:05;96889.00;;;18.10
15680;BMP180;15488;48.114;11.532;2022-11-11T10:35:38;96891.00;;;18.20
15680;BMP180;15488;48.114;11.532;2022-11-11T10:38:18;96900.00;;;18.30
15680;BMP180;15488;48.114;11.532;2022-11-11T10:40:51;96900.00;;;18.40
15680;BMP180;15488;48.114;11.532;2022-11-11T10:43:22;96899.00;;;18.50
15680;BMP180;15488;48.114;11.532;2022-11-11T10:46:00;96899.00;;;18.60
15680;BMP180;15488;48.114;11.532;2022-11-11T10:48:38;96901.00;;;18.70
15680;BMP180;15488;48.114;11.532;2022-11-11T10:51:08;96902.00;;;18.80
15680;BMP180;15488;48.114;11.532;2022-11-11T10:53:39;96896.00;;;18.70
15680;BMP180;15488;48.114;11.532;2022-11-11T10:56:16;96892.00;;;18.90
15680;BMP180;15488;48.114;11.532;2022-11-11T10:58:48;96885.00;;;19.00
15680;BMP180;15488;48.114;11.532;2022-11-11T11:01:24;96893.00;;;19.10
15680;BMP180;15488;48.114;11.532;2022-11-11T11:03:58;96887.00;;;19.20
15680;BMP180;15488;48.114;11.532;2022-11-11T11:06:29;96893.00;;;19.20
15680;BMP180;15488;48.114;11.532;2022-11-11T11:09:02;96901.00;;;19.30
15680;BMP180;15488;48.114;11.532;2022-11-11T11:11:35;96905.00;;;19.40
15680;BMP180;15488;48.114;11.532;2022-11-11T11:14:09;96910.00;;;19.40
15680;BMP180;15488;48.114;11.532;2022-11-11T11:16:43;96915.00;;;19.50
15680;BMP180;15488;48.114;11.532;2022-11-11T11:19:16;96905.00;;;19.60
15680;BMP180;15488;48.114;11.532;2022-11-11T11:21:51;96906.00;;;19.60
15680;BMP180;15488;48.114;11.532;2022-11-11T11:24:22;96908.00;;;19.70
15680;BMP180;15488;48.114;11.532;2022-11-11T11:26:52;96901.00;;;19.80
15680;BMP180;15488;48.114;11.532;2022-11-11T11:29:26;96897.00;;;19.90
15680;BMP180;15488;48.114;11.532;2022-11-11T11:31:53;96898.00;;;20.00
15680;BMP180;15488;48.114;11.532;2022-11-11T11:34:43;96905.00;;;20.00
15680;BMP180;15488;48.114;11.532;2022-11-11T11:37:11;96898.00;;;20.10
15680;BMP180;15488;48.114;11.532;2022-11-11T11:39:39;96890.00;;;20.20
15680;BMP180;15488;48.114;11.532;2022-11-11T11:42:07;96885.00;;;20.30
15680;BMP180;15488;48.114;11.532;2022-11-11T11:44:37;96890.00;;;20.40
15680;BMP180;15488;48.114;11.532;2022-11-11T11:47:16;96883.00;;;20.40
15680;BMP180;15488;48.114;11.532;2022-11-11T11:50:04;96882.00;;;20.40
15680;BMP180;15488;48.114;11.532;2022-11-11T11:52:41;96885.00;;;20.60
15680;BMP180;15488;48.114;11.532;2022-11-11T11:55:14;96884.00;;;20.70
15680;BMP180;15488;48.114;11.532;2022-11-11T11:57:55;96876.00;;;20.70
15680;BMP180;15488;48.114;11.532;2022-11-11T12:00:28;96881.00;;;20.80
15680;BMP180;15488;48.114;11.532;2022-11-11T12:03:23;96872.00;;;20.80
15680;BMP180;15488;48.114;11.532;2022-11-11T12:06:01;96867.00;;;20.90
15680;BMP180;15488;48.114;11.532;2022-11-11T12:08:41;96861.00;;;20.90
15680;BMP180;15488;48.114;11.532;2022-11-11T12:11:17;96865.00;;;21.00
15680;BMP180;15488;48.114;11.532;2022-11-11T12:13:58;96869.00;;;21.00
15680;BMP180;15488;48.114;11.532;2022-11-11T12:16:34;96869.00;;;21.10
15680;BMP180;15488;48.114;11.532;2022-11-11T12:19:18;96871.00;;;21.10
15680;BMP180;15488;48.114;11.532;2022-11-11T12:21:57;96877.00;;;21.10
15680;BMP180;15488;48.114;11.532;2022-11-11T12:24:41;96884.00;;;21.20
15680;BMP180;15488;48.114;11.532;2022-11-11T12:27:16;96879.00;;;21.20
15680;BMP180;15488;48.114;11.532;2022-11-11T12:29:58;96875.00;;;21.30
15680;BMP180;15488;48.114;11.532;2022-11-11T12:32:44;96863.00;;;21.30
15680;BMP180;15488;48.114;11.532;2022-11-11T12:35:37;96863.00;;;21.30
15680;BMP180;15488;48.114;11.532;2022-11-11T12:38:25;96861.00;;;21.40
15680;BMP180;15488;48.114;11.532;2022-11-11T12:41:06;96864.00;;;21.50
15680;BMP180;15488;48.114;11.532;2022-11-11T12:43:48;96860.00;;;21.60
15680;BMP180;15488;48.114;11.532;2022-11-11T12:46:23;96863.00;;;21.70
15680;BMP180;15488;48.114;11.532;2022-11-11T12:49:02;96860.00;;;21.80
15680;BMP180;15488;48.114;11.532;2022-11-11T12:51:48;96850.00;;;22.00
15680;BMP180;15488;48.114;11.532;2022-11-11T12:54:29;96853.00;;;22.10
15680;BMP180;15488;48.114;11.532;2022-11-11T12:57:03;96850.00;;;22.20
15680;BMP180;15488;48.114;11.532;2022-11-11T12:59:49;96861.00;;;22.40
15680;BMP180;15488;48.114;11.532;2022-11-11T13:02:37;96856.00;;;22.60
15680;BMP180;15488;48.114;11.532;2022-11-11T13:05:13;96858.00;;;22.90
15680;BMP180;15488;48.114;11.532;2022-11-11T13:08:06;96866.00;;;23.40
15680;BMP180;15488;48.114;11.532;2022-11-11T13:10:41;96860.00;;;23.90
15680;BMP180;15488;48.114;11.532;2022-11-11T13:13:24;96868.00;;;24.40
15680;BMP180;15488;48.114;11.532;2022-11-11T13:15:56;96861.00;;;24.90
15680;BMP180;15488;48.114;11.532;2022-11-11T13:18:27;96869.00;;;25.50
15680;BMP180;15488;48.114;11.532;2022-11-11T13:20:59;96868.00;;;26.20
15680;BMP180;15488;48.114;11.532;2022-11-11T13:23:30;96871.00;;;26.60
15680;BMP180;15488;48.114;11.532;2022-11-11T13:26:01;96865.00;;;26.80
15680;BMP180;15488;48.114;11.532;2022-11-11T13:28:34;96867.00;;;26.80
15680;BMP180;15488;48.114;11.532;2022-11-11T13:31:13;96861.00;;;26.90
15680;BMP180;15488;48.114;11.532;2022-11-11T13:33:45;96868.00;;;26.80
15680;BMP180;15488;48.114;11.532;2022-11-11T13:36:16;96863.00;;;26.70
15680;BMP180;15488;48.114;11.532;2022-11-11T13:38:47;96867.00;;;26.50
15680;BMP180;15488;48.114;11.532;2022-11-11T13:41:23;96862.00;;;26.30
15680;BMP180;15488;48.114;11.532;2022-11-11T13:43:52;96867.00;;;26.00
15680;BMP180;15488;48.114;11.532;2022-11-11T13:46:34;96859.00;;;25.80
15680;BMP180;15488;48.114;11.532;2022-11-11T13:49:03;96856.00;;;25.60
15680;BMP180;15488;48.114;11.532;2022-11-11T13:51:37;96860.00;;;25.30
15680;BMP180;15488;48.114;11.532;2022-11-11T13:54:19;96858.00;;;25.20
15680;BMP180;15488;48.114;11.532;2022-11-11T13:56:49;96865.00;;;25.00
15680;BMP180;15488;48.114;11.532;2022-11-11T13:59:20;96870.00;;;24.80
15680;BMP180;15488;48.114;11.532;2022-11-11T14:02:30;96873.00;;;24.70
15680;BMP180;15488;48.114;11.532;2022-11-11T14:05:18;96875.00;;;24.50
15680;BMP180;15488;48.114;11.532;2022-11-11T14:07:50;96874.00;;;24.30
15680;BMP180;15488;48.114;11.532;2022-11-11T14:10:48;96881.00;;;24.20
15680;BMP180;15488;48.114;11.532;2022-11-11T14:13:35;96892.00;;;24.10
15680;BMP180;15488;48.114;11.532;2022-11-11T14:16:03;96895.00;;;24.00
15680;BMP180;15488;48.114;11.532;2022-11-11T14:18:38;96905.00;;;23.90
15680;BMP180;15488;48.114;11.532;2022-11-11T14:21:08;96904.00;;;23.80
15680;BMP180;15488;48.114;11.532;2022-11-11T14:23:37;96894.00;;;23.70
15680;BMP180;15488;48.114;11.532;2022-11-11T14:26:36;96908.00;;;23.50
15680;BMP180;15488;48.114;11.532;2022-11-11T14:29:04;96901.00;;;23.30
15680;BMP180;15488;48.114;11.532;2022-11-11T14:32:17;96889.00;;;23.10
15680;BMP180;15488;48.114;11.532;2022-11-11T14:35:18;96877.00;;;22.90